sensor_id;sensor_type;location;lat;lon;timestamp;P1;durP1;ratioP1;P2;durP2;ratioP2
17818;SDS011;9034;50.284;19.310;2022-07-05T00:00:04;4.15;;;3.38;;
17818;SDS011;9034;50.284;19.310;2022-07-05T00:01:13;4.50;;;3.30;;
17818;SDS011;9034;50.284;19.310;2022-07-05T00:02:17;4.72;;;3.28;;
17818;SDS011;9034;50.284;19.310;2022-07-05T00:03:21;4.33;;;3.20;;
17818;SDS011;9034;50.284;19.310;2022-07-05T00:04:25;4.05;;;3.20;;
17818;SDS011;9034;50.284;19.310;2022-07-05T00:05:37;6.40;;;3.30;;
17818;SDS011;9034;50.284;19.310;2022-07-05T00:06:40;3.60;;;3.20;;
17818;SDS011;9034;50.284;19.310;2022-07-05T00:08:05;5.53;;;3.17;;
17818;SDS011;9034;50.284;19.310;2022-07-05T00:09:08;4.57;;;3.23;;
17818;SDS011;9034;50.284;19.310;2022-07-05T00:10:12;3.40;;;3.10;;
17818;SDS011;9034;50.284;19.310;2022-07-05T00:11:17;5.27;;;3.07;;
17818;SDS011;9034;50.284;19.310;2022-07-05T00:12:22;4.37;;;3.17;;
17818;SDS011;9034;50.284;19.310;2022-07-05T00:13:26;4.07;;;3.40;;
17818;SDS011;9034;50.284;19.310;2022-07-05T00:14:31;3.73;;;3.17;;
17818;SDS011;9034;50.284;19.310;2022-07-05T00:15:34;3.53;;;3.23;;
17818;SDS011;9034;50.284;19.310;2022-07-05T00:16:39;5.17;;;3.40;;
17818;SDS011;9034;50.284;19.310;2022-07-05T00:17:42;4.70;;;3.47;;
17818;SDS011;9034;50.284;19.310;2022-07-05T00:18:46;6.07;;;3.80;;
17818;SDS011;9034;50.284;19.310;2022-07-05T00:19:50;5.07;;;3.53;;
17818;SDS011;9034;50.284;19.310;2022-07-05T00:20:54;7.97;;;4.80;;
17818;SDS011;9034;50.284;19.310;2022-07-05T00:21:58;7.13;;;4.30;;
17818;SDS011;9034;50.284;19.310;2022-07-05T00:23:01;9.33;;;5.17;;
17818;SDS011;9034;50.284;19.310;2022-07-05T00:24:06;11.90;;;6.40;;
17818;SDS011;9034;50.284;19.310;2022-07-05T00:25:10;12.40;;;6.10;;
17818;SDS011;9034;50.284;19.310;2022-07-05T00:26:13;13.90;;;6.43;;
17818;SDS011;9034;50.284;19.310;2022-07-05T00:27:19;12.13;;;6.13;;
17818;SDS011;9034;50.284;19.310;2022-07-05T00:28:22;13.77;;;6.93;;
17818;SDS011;9034;50.284;19.310;2022-07-05T00:29:27;11.53;;;5.80;;
17818;SDS011;9034;50.284;19.310;2022-07-05T00:30:31;9.37;;;5.07;;
17818;SDS011;9034;50.284;19.310;2022-07-05T00:31:36;8.87;;;4.30;;
17818;SDS011;9034;50.284;19.310;2022-07-05T00:32:39;6.73;;;4.10;;
17818;SDS011;9034;50.284;19.310;2022-07-05T00:33:44;4.43;;;3.50;;
17818;SDS011;9034;50.284;19.310;2022-07-05T00:34:47;5.40;;;3.80;;
17818;SDS011;9034;50.284;19.310;2022-07-05T00:35:51;3.83;;;3.47;;
17818;SDS011;9034;50.284;19.310;2022-07-05T00:36:55;5.33;;;3.63;;
17818;SDS011;9034;50.284;19.310;2022-07-05T00:37:58;4.13;;;3.73;;
17818;SDS011;9034;50.284;19.310;2022-07-05T00:39:02;3.90;;;3.03;;
17818;SDS011;9034;50.284;19.310;2022-07-05T00:40:06;6.40;;;4.67;;
17818;SDS011;9034;50.284;19.310;2022-07-05T00:41:11;3.30;;;2.90;;
17818;SDS011;9034;50.284;19.310;2022-07-05T00:42:14;4.77;;;2.93;;
17818;SDS011;9034;50.284;19.310;2022-07-05T00:43:20;3.13;;;2.70;;
17818;SDS011;9034;50.284;19.310;2022-07-05T00:44:30;3.53;;;3.23;;
17818;SDS011;9034;50.284;19.310;2022-07-05T00:45:37;3.40;;;3.10;;
17818;SDS011;9034;50.284;19.310;2022-07-05T00:46:42;4.63;;;3.00;;
17818;SDS011;9034;50.284;19.310;2022-07-05T00:47:46;2.80;;;2.60;;
17818;SDS011;9034;50.284;19.310;2022-07-05T00:48:51;3.43;;;3.20;;
17818;SDS011;9034;50.284;19.310;2022-07-05T00:49:54;3.07;;;2.87;;
17818;SDS011;9034;50.284;19.310;2022-07-05T00:50:58;3.87;;;3.10;;
17818;SDS011;9034;50.284;19.310;2022-07-05T00:52:01;3.10;;;2.80;;
17818;SDS011;9034;50.284;19.310;2022-07-05T00:53:22;4.03;;;3.10;;
17818;SDS011;9034;50.284;19.310;2022-07-05T00:54:27;4.35;;;2.85;;
17818;SDS011;9034;50.284;19.310;2022-07-05T00:55:30;4.17;;;2.80;;
17818;SDS011;9034;50.284;19.310;2022-07-05T00:56:35;3.73;;;3.17;;
17818;SDS011;9034;50.284;19.310;2022-07-05T00:57:38;4.20;;;3.20;;
17818;SDS011;9034;50.284;19.310;2022-07-05T00:58:44;3.53;;;3.23;;
17818;SDS011;9034;50.284;19.310;2022-07-05T00:59:47;4.20;;;3.40;;
17818;SDS011;9034;50.284;19.310;2022-07-05T01:00:52;4.33;;;3.03;;
17818;SDS011;9034;50.284;19.310;2022-07-05T01:01:55;3.83;;;3.20;;
17818;SDS011;9034;50.284;19.310;2022-07-05T01:03:00;3.30;;;3.00;;
17818;SDS011;9034;50.284;19.310;2022-07-05T01:04:03;3.77;;;3.20;;
17818;SDS011;9034;50.284;19.310;2022-07-05T01:05:07;3.08;;;2.85;;
17818;SDS011;9034;50.284;19.310;2022-07-05T01:06:11;2.97;;;2.73;;
17818;SDS011;9034;50.284;19.310;2022-07-05T01:07:17;3.17;;;2.97;;
17818;SDS011;9034;50.284;19.310;2022-07-05T01:08:22;3.10;;;2.80;;
17818;SDS011;9034;50.284;19.310;2022-07-05T01:09:26;4.45;;;3.20;;
17818;SDS011;9034;50.284;19.310;2022-07-05T01:10:29;3.33;;;3.00;;
17818;SDS011;9034;50.284;19.310;2022-07-05T01:11:34;3.13;;;2.87;;
17818;SDS011;9034;50.284;19.310;2022-07-05T01:12:38;4.70;;;3.57;;
17818;SDS011;9034;50.284;19.310;2022-07-05T01:13:42;3.90;;;3.37;;
17818;SDS011;9034;50.284;19.310;2022-07-05T01:14:47;3.80;;;3.07;;
17818;SDS011;9034;50.284;19.310;2022-07-05T01:15:52;5.20;;;3.63;;
17818;SDS011;9034;50.284;19.310;2022-07-05T01:16:55;4.13;;;3.70;;
17818;SDS011;9034;50.284;19.310;2022-07-05T01:18:00;4.57;;;3.50;;
17818;SDS011;9034;50.284;19.310;2022-07-05T01:19:04;3.97;;;3.63;;
17818;SDS011;9034;50.284;19.310;2022-07-05T01:20:09;3.77;;;3.37;;
17818;SDS011;9034;50.284;19.310;2022-07-05T01:21:13;3.93;;;3.53;;
17818;SDS011;9034;50.284;19.310;2022-07-05T01:22:20;7.40;;;3.97;;
17818;SDS011;9034;50.284;19.310;2022-07-05T01:23:30;3.93;;;3.53;;
17818;SDS011;9034;50.284;19.310;2022-07-05T01:24:34;4.40;;;3.97;;
17818;SDS011;9034;50.284;19.310;2022-07-05T01:25:38;4.00;;;3.70;;
17818;SDS011;9034;50.284;19.310;2022-07-05T01:26:42;3.93;;;3.47;;
17818;SDS011;9034;50.284;19.310;2022-07-05T01:27:49;5.10;;;3.50;;
17818;SDS011;9034;50.284;19.310;2022-07-05T01:28:53;4.53;;;3.23;;
17818;SDS011;9034;50.284;19.310;2022-07-05T01:29:56;5.33;;;3.67;;
17818;SDS011;9034;50.284;19.310;2022-07-05T01:31:01;3.90;;;3.43;;
17818;SDS011;9034;50.284;19.310;2022-07-05T01:32:04;3.50;;;3.20;;
17818;SDS011;9034;50.284;19.310;2022-07-05T01:33:09;5.17;;;3.27;;
17818;SDS011;9034;50.284;19.310;2022-07-05T01:34:13;4.60;;;4.20;;
17818;SDS011;9034;50.284;19.310;2022-07-05T01:35:18;3.60;;;3.30;;
17818;SDS011;9034;50.284;19.310;2022-07-05T01:36:23;4.30;;;3.65;;
17818;SDS011;9034;50.284;19.310;2022-07-05T01:37:28;3.75;;;3.42;;
17818;SDS011;9034;50.284;19.310;2022-07-05T01:38:33;4.47;;;3.80;;
17818;SDS011;9034;50.284;19.310;2022-07-05T01:39:37;4.33;;;3.80;;
17818;SDS011;9034;50.284;19.310;2022-07-05T01:40:41;4.20;;;3.65;;
17818;SDS011;9034;50.284;19.310;2022-07-05T01:41:45;3.95;;;3.60;;
17818;SDS011;9034;50.284;19.310;2022-07-05T01:42:50;3.90;;;3.50;;
17818;SDS011;9034;50.284;19.310;2022-07-05T01:43:55;5.50;;;3.97;;
17818;SDS011;9034;50.284;19.310;2022-07-05T01:44:58;4.28;;;3.88;;
17818;SDS011;9034;50.284;19.310;2022-07-05T01:46:04;4.32;;;3.92;;
17818;SDS011;9034;50.284;19.310;2022-07-05T01:47:07;4.95;;;4.45;;
17818;SDS011;9034;50.284;19.310;2022-07-05T01:48:14;5.43;;;4.07;;
17818;SDS011;9034;50.284;19.310;2022-07-05T01:49:18;4.60;;;4.18;;
17818;SDS011;9034;50.284;19.310;2022-07-05T01:50:23;5.63;;;3.85;;
17818;SDS011;9034;50.284;19.310;2022-07-05T01:51:27;4.18;;;3.63;;
17818;SDS011;9034;50.284;19.310;2022-07-05T01:52:34;4.38;;;3.97;;
17818;SDS011;9034;50.284;19.310;2022-07-05T01:53:42;5.13;;;4.20;;
17818;SDS011;9034;50.284;19.310;2022-07-05T01:54:46;6.38;;;3.67;;
17818;SDS011;9034;50.284;19.310;2022-07-05T01:55:51;5.20;;;4.20;;
17818;SDS011;9034;50.284;19.310;2022-07-05T01:56:55;4.47;;;4.07;;
17818;SDS011;9034;50.284;19.310;2022-07-05T01:57:59;5.35;;;3.97;;
17818;SDS011;9034;50.284;19.310;2022-07-05T01:59:03;5.53;;;4.55;;
17818;SDS011;9034;50.284;19.310;2022-07-05T02:00:07;5.85;;;4.53;;
17818;SDS011;9034;50.284;19.310;2022-07-05T02:01:14;4.65;;;4.25;;
17818;SDS011;9034;50.284;19.310;2022-07-05T02:02:19;5.40;;;4.82;;
17818;SDS011;9034;50.284;19.310;2022-07-05T02:03:22;4.72;;;3.85;;
17818;SDS011;9034;50.284;19.310;2022-07-05T02:04:47;5.13;;;4.63;;
17818;SDS011;9034;50.284;19.310;2022-07-05T02:05:52;4.97;;;4.47;;
17818;SDS011;9034;50.284;19.310;2022-07-05T02:06:56;5.75;;;4.72;;
17818;SDS011;9034;50.284;19.310;2022-07-05T02:08:00;6.03;;;4.97;;
17818;SDS011;9034;50.284;19.310;2022-07-05T02:09:05;4.88;;;4.40;;
17818;SDS011;9034;50.284;19.310;2022-07-05T02:10:10;5.57;;;4.25;;
17818;SDS011;9034;50.284;19.310;2022-07-05T02:11:13;7.20;;;4.88;;
17818;SDS011;9034;50.284;19.310;2022-07-05T02:12:18;6.53;;;5.20;;
17818;SDS011;9034;50.284;19.310;2022-07-05T02:13:22;5.60;;;4.65;;
17818;SDS011;9034;50.284;19.310;2022-07-05T02:14:27;6.15;;;5.43;;
17818;SDS011;9034;50.284;19.310;2022-07-05T02:15:32;8.30;;;5.45;;
17818;SDS011;9034;50.284;19.310;2022-07-05T02:16:36;5.80;;;5.30;;
17818;SDS011;9034;50.284;19.310;2022-07-05T02:17:40;6.10;;;5.15;;
17818;SDS011;9034;50.284;19.310;2022-07-05T02:18:44;5.95;;;5.35;;
17818;SDS011;9034;50.284;19.310;2022-07-05T02:19:49;5.93;;;5.32;;
17818;SDS011;9034;50.284;19.310;2022-07-05T02:20:53;6.55;;;5.95;;
17818;SDS011;9034;50.284;19.310;2022-07-05T02:21:57;5.20;;;4.70;;
17818;SDS011;9034;50.284;19.310;2022-07-05T02:23:01;7.65;;;5.25;;
17818;SDS011;9034;50.284;19.310;2022-07-05T02:24:08;5.53;;;5.03;;
17818;SDS011;9034;50.284;19.310;2022-07-05T02:25:20;6.90;;;5.75;;
17818;SDS011;9034;50.284;19.310;2022-07-05T02:26:26;6.43;;;5.70;;
17818;SDS011;9034;50.284;19.310;2022-07-05T02:27:30;9.88;;;6.20;;
17818;SDS011;9034;50.284;19.310;2022-07-05T02:28:33;7.85;;;7.13;;
17818;SDS011;9034;50.284;19.310;2022-07-05T02:29:38;7.53;;;6.72;;
17818;SDS011;9034;50.284;19.310;2022-07-05T02:30:43;8.40;;;6.07;;
17818;SDS011;9034;50.284;19.310;2022-07-05T02:31:46;7.13;;;5.88;;
17818;SDS011;9034;50.284;19.310;2022-07-05T02:32:52;8.05;;;5.95;;
17818;SDS011;9034;50.284;19.310;2022-07-05T02:33:55;7.68;;;6.00;;
17818;SDS011;9034;50.284;19.310;2022-07-05T02:35:00;7.22;;;6.03;;
17818;SDS011;9034;50.284;19.310;2022-07-05T02:36:07;8.65;;;6.07;;
17818;SDS011;9034;50.284;19.310;2022-07-05T02:37:12;7.57;;;6.13;;
17818;SDS011;9034;50.284;19.310;2022-07-05T02:38:17;9.73;;;6.53;;
17818;SDS011;9034;50.284;19.310;2022-07-05T02:39:21;10.52;;;6.50;;
17818;SDS011;9034;50.284;19.310;2022-07-05T02:40:28;8.20;;;6.10;;
17818;SDS011;9034;50.284;19.310;2022-07-05T02:41:31;6.68;;;5.63;;
17818;SDS011;9034;50.284;19.310;2022-07-05T02:42:36;7.22;;;5.97;;
17818;SDS011;9034;50.284;19.310;2022-07-05T02:43:39;7.55;;;6.75;;
17818;SDS011;9034;50.284;19.310;2022-07-05T02:44:44;6.50;;;5.90;;
17818;SDS011;9034;50.284;19.310;2022-07-05T02:45:49;6.82;;;6.07;;
17818;SDS011;9034;50.284;19.310;2022-07-05T02:46:53;6.82;;;6.13;;
17818;SDS011;9034;50.284;19.310;2022-07-05T02:47:58;9.88;;;7.70;;
17818;SDS011;9034;50.284;19.310;2022-07-05T02:49:05;8.73;;;5.93;;
17818;SDS011;9034;50.284;19.310;2022-07-05T02:50:10;7.53;;;6.53;;
17818;SDS011;9034;50.284;19.310;2022-07-05T02:51:19;7.30;;;6.60;;
17818;SDS011;9034;50.284;19.310;2022-07-05T02:52:25;7.40;;;6.22;;
17818;SDS011;9034;50.284;19.310;2022-07-05T02:53:30;7.35;;;6.18;;
17818;SDS011;9034;50.284;19.310;2022-07-05T02:54:35;14.90;;;9.77;;
17818;SDS011;9034;50.284;19.310;2022-07-05T02:55:40;17.65;;;11.32;;
17818;SDS011;9034;50.284;19.310;2022-07-05T02:56:44;14.88;;;10.00;;
17818;SDS011;9034;50.284;19.310;2022-07-05T02:57:50;14.32;;;10.00;;
17818;SDS011;9034;50.284;19.310;2022-07-05T02:58:54;13.57;;;9.13;;
17818;SDS011;9034;50.284;19.310;2022-07-05T03:00:00;14.15;;;10.05;;
17818;SDS011;9034;50.284;19.310;2022-07-05T03:01:12;13.98;;;10.45;;
17818;SDS011;9034;50.284;19.310;2022-07-05T03:02:17;15.10;;;11.18;;
17818;SDS011;9034;50.284;19.310;2022-07-05T03:03:20;13.57;;;10.07;;
17818;SDS011;9034;50.284;19.310;2022-07-05T03:04:26;12.55;;;9.88;;
17818;SDS011;9034;50.284;19.310;2022-07-05T03:05:31;10.20;;;8.88;;
17818;SDS011;9034;50.284;19.310;2022-07-05T03:06:38;10.13;;;8.25;;
17818;SDS011;9034;50.284;19.310;2022-07-05T03:07:42;9.52;;;7.80;;
17818;SDS011;9034;50.284;19.310;2022-07-05T03:08:46;8.55;;;7.50;;
17818;SDS011;9034;50.284;19.310;2022-07-05T03:09:51;9.07;;;7.05;;
17818;SDS011;9034;50.284;19.310;2022-07-05T03:10:57;7.57;;;6.88;;
17818;SDS011;9034;50.284;19.310;2022-07-05T03:12:00;7.53;;;6.80;;
17818;SDS011;9034;50.284;19.310;2022-07-05T03:13:06;7.22;;;6.35;;
17818;SDS011;9034;50.284;19.310;2022-07-05T03:14:12;7.25;;;6.53;;
17818;SDS011;9034;50.284;19.310;2022-07-05T03:15:16;7.20;;;6.50;;
17818;SDS011;9034;50.284;19.310;2022-07-05T03:16:21;7.63;;;6.82;;
17818;SDS011;9034;50.284;19.310;2022-07-05T03:17:26;7.88;;;6.88;;
17818;SDS011;9034;50.284;19.310;2022-07-05T03:18:31;9.60;;;6.97;;
17818;SDS011;9034;50.284;19.310;2022-07-05T03:19:36;9.02;;;7.95;;
17818;SDS011;9034;50.284;19.310;2022-07-05T03:20:41;11.27;;;9.05;;
17818;SDS011;9034;50.284;19.310;2022-07-05T03:21:46;8.63;;;7.75;;
17818;SDS011;9034;50.284;19.310;2022-07-05T03:22:49;7.82;;;6.78;;
17818;SDS011;9034;50.284;19.310;2022-07-05T03:23:58;7.65;;;6.00;;
17818;SDS011;9034;50.284;19.310;2022-07-05T03:25:04;9.15;;;6.50;;
17818;SDS011;9034;50.284;19.310;2022-07-05T03:26:09;8.10;;;6.68;;
17818;SDS011;9034;50.284;19.310;2022-07-05T03:27:13;10.35;;;6.57;;
17818;SDS011;9034;50.284;19.310;2022-07-05T03:28:23;7.53;;;6.72;;
17818;SDS011;9034;50.284;19.310;2022-07-05T03:29:30;6.72;;;6.13;;
17818;SDS011;9034;50.284;19.310;2022-07-05T03:30:34;8.20;;;7.40;;
17818;SDS011;9034;50.284;19.310;2022-07-05T03:31:38;8.50;;;6.60;;
17818;SDS011;9034;50.284;19.310;2022-07-05T03:32:42;8.98;;;6.82;;
17818;SDS011;9034;50.284;19.310;2022-07-05T03:33:46;9.88;;;6.90;;
17818;SDS011;9034;50.284;19.310;2022-07-05T03:34:49;9.57;;;7.65;;
17818;SDS011;9034;50.284;19.310;2022-07-05T03:35:54;8.57;;;6.53;;
17818;SDS011;9034;50.284;19.310;2022-07-05T03:36:59;7.55;;;6.85;;
17818;SDS011;9034;50.284;19.310;2022-07-05T03:38:03;7.68;;;6.88;;
17818;SDS011;9034;50.284;19.310;2022-07-05T03:39:07;7.50;;;6.65;;
17818;SDS011;9034;50.284;19.310;2022-07-05T03:40:13;7.13;;;6.43;;
17818;SDS011;9034;50.284;19.310;2022-07-05T03:41:16;7.45;;;6.43;;
17818;SDS011;9034;50.284;19.310;2022-07-05T03:42:21;6.28;;;5.78;;
17818;SDS011;9034;50.284;19.310;2022-07-05T03:43:25;9.57;;;6.70;;
17818;SDS011;9034;50.284;19.310;2022-07-05T03:44:29;6.50;;;5.75;;
17818;SDS011;9034;50.284;19.310;2022-07-05T03:45:37;6.53;;;5.90;;
17818;SDS011;9034;50.284;19.310;2022-07-05T03:46:43;7.57;;;6.80;;
17818;SDS011;9034;50.284;19.310;2022-07-05T03:47:51;7.20;;;6.50;;
17818;SDS011;9034;50.284;19.310;2022-07-05T03:48:56;7.13;;;6.35;;
17818;SDS011;9034;50.284;19.310;2022-07-05T03:49:59;7.10;;;6.40;;
17818;SDS011;9034;50.284;19.310;2022-07-05T03:51:03;6.95;;;6.18;;
17818;SDS011;9034;50.284;19.310;2022-07-05T03:52:06;7.00;;;6.20;;
17818;SDS011;9034;50.284;19.310;2022-07-05T03:53:11;8.45;;;6.40;;
17818;SDS011;9034;50.284;19.310;2022-07-05T03:54:14;6.65;;;6.13;;
17818;SDS011;9034;50.284;19.310;2022-07-05T03:55:20;7.10;;;6.47;;
17818;SDS011;9034;50.284;19.310;2022-07-05T03:56:25;8.20;;;6.50;;
17818;SDS011;9034;50.284;19.310;2022-07-05T03:57:33;8.57;;;6.55;;
17818;SDS011;9034;50.284;19.310;2022-07-05T03:58:38;7.50;;;6.80;;
17818;SDS011;9034;50.284;19.310;2022-07-05T03:59:42;6.88;;;6.18;;
17818;SDS011;9034;50.284;19.310;2022-07-05T04:00:47;8.75;;;6.30;;
17818;SDS011;9034;50.284;19.310;2022-07-05T04:01:54;7.95;;;7.05;;
17818;SDS011;9034;50.284;19.310;2022-07-05T04:02:58;8.18;;;7.10;;
17818;SDS011;9034;50.284;19.310;2022-07-05T04:04:02;7.88;;;7.18;;
17818;SDS011;9034;50.284;19.310;2022-07-05T04:05:07;8.43;;;6.88;;
17818;SDS011;9034;50.284;19.310;2022-07-05T04:06:12;8.85;;;7.00;;
17818;SDS011;9034;50.284;19.310;2022-07-05T04:07:16;7.93;;;7.05;;
17818;SDS011;9034;50.284;19.310;2022-07-05T04:08:21;8.25;;;7.00;;
17818;SDS011;9034;50.284;19.310;2022-07-05T04:09:24;8.75;;;7.00;;
17818;SDS011;9034;50.284;19.310;2022-07-05T04:10:31;8.95;;;6.97;;
17818;SDS011;9034;50.284;19.310;2022-07-05T04:11:36;6.97;;;6.28;;
17818;SDS011;9034;50.284;19.310;2022-07-05T04:12:40;8.02;;;7.20;;
17818;SDS011;9034;50.284;19.310;2022-07-05T04:13:46;7.35;;;6.65;;
17818;SDS011;9034;50.284;19.310;2022-07-05T04:14:51;10.20;;;8.10;;
17818;SDS011;9034;50.284;19.310;2022-07-05T04:15:55;7.65;;;6.95;;
17818;SDS011;9034;50.284;19.310;2022-07-05T04:16:59;8.38;;;6.85;;
17818;SDS011;9034;50.284;19.310;2022-07-05T04:18:04;9.32;;;7.65;;
17818;SDS011;9034;50.284;19.310;2022-07-05T04:19:11;6.85;;;6.18;;
17818;SDS011;9034;50.284;19.310;2022-07-05T04:20:16;8.00;;;6.50;;
17818;SDS011;9034;50.284;19.310;2022-07-05T04:21:19;8.23;;;7.35;;
17818;SDS011;9034;50.284;19.310;2022-07-05T04:22:24;7.35;;;6.40;;
17818;SDS011;9034;50.284;19.310;2022-07-05T04:23:27;7.63;;;6.85;;
17818;SDS011;9034;50.284;19.310;2022-07-05T04:24:32;7.47;;;6.75;;
17818;SDS011;9034;50.284;19.310;2022-07-05T04:25:58;7.55;;;6.78;;
17818;SDS011;9034;50.284;19.310;2022-07-05T04:27:11;8.40;;;7.25;;
17818;SDS011;9034;50.284;19.310;2022-07-05T04:28:14;8.68;;;7.18;;
17818;SDS011;9034;50.284;19.310;2022-07-05T04:29:21;9.57;;;7.78;;
17818;SDS011;9034;50.284;19.310;2022-07-05T04:30:25;9.38;;;7.30;;
17818;SDS011;9034;50.284;19.310;2022-07-05T04:31:31;8.50;;;7.45;;
17818;SDS011;9034;50.284;19.310;2022-07-05T04:32:34;11.80;;;7.32;;
17818;SDS011;9034;50.284;19.310;2022-07-05T04:33:40;8.40;;;7.60;;
17818;SDS011;9034;50.284;19.310;2022-07-05T04:34:45;9.88;;;8.23;;
17818;SDS011;9034;50.284;19.310;2022-07-05T04:35:49;8.13;;;7.32;;
17818;SDS011;9034;50.284;19.310;2022-07-05T04:36:52;9.30;;;8.20;;
17818;SDS011;9034;50.284;19.310;2022-07-05T04:37:57;9.60;;;8.30;;
17818;SDS011;9034;50.284;19.310;2022-07-05T04:39:00;8.40;;;7.60;;
17818;SDS011;9034;50.284;19.310;2022-07-05T04:40:08;10.82;;;8.32;;
17818;SDS011;9034;50.284;19.310;2022-07-05T04:41:16;10.45;;;8.40;;
17818;SDS011;9034;50.284;19.310;2022-07-05T04:42:20;11.85;;;8.27;;
17818;SDS011;9034;50.284;19.310;2022-07-05T04:43:24;11.27;;;8.48;;
17818;SDS011;9034;50.284;19.310;2022-07-05T04:44:28;10.45;;;8.57;;
17818;SDS011;9034;50.284;19.310;2022-07-05T04:45:31;8.75;;;7.93;;
17818;SDS011;9034;50.284;19.310;2022-07-05T04:46:36;10.80;;;7.85;;
17818;SDS011;9034;50.284;19.310;2022-07-05T04:47:39;9.13;;;7.90;;
17818;SDS011;9034;50.284;19.310;2022-07-05T04:48:43;9.52;;;8.52;;
17818;SDS011;9034;50.284;19.310;2022-07-05T04:49:48;9.52;;;8.35;;
17818;SDS011;9034;50.284;19.310;2022-07-05T04:50:52;9.88;;;8.60;;
17818;SDS011;9034;50.284;19.310;2022-07-05T04:51:57;10.30;;;9.25;;
17818;SDS011;9034;50.284;19.310;2022-07-05T04:53:01;11.38;;;9.93;;
17818;SDS011;9034;50.284;19.310;2022-07-05T04:54:04;10.85;;;9.43;;
17818;SDS011;9034;50.284;19.310;2022-07-05T04:55:09;10.57;;;9.57;;
17818;SDS011;9034;50.284;19.310;2022-07-05T04:56:12;10.35;;;8.98;;
17818;SDS011;9034;50.284;19.310;2022-07-05T04:57:18;9.82;;;8.65;;
17818;SDS011;9034;50.284;19.310;2022-07-05T04:58:21;9.57;;;8.68;;
17818;SDS011;9034;50.284;19.310;2022-07-05T04:59:25;10.30;;;9.30;;
17818;SDS011;9034;50.284;19.310;2022-07-05T05:00:28;10.35;;;8.73;;
17818;SDS011;9034;50.284;19.310;2022-07-05T05:01:33;9.63;;;8.73;;
17818;SDS011;9034;50.284;19.310;2022-07-05T05:02:36;10.88;;;9.73;;
17818;SDS011;9034;50.284;19.310;2022-07-05T05:03:40;13.45;;;9.43;;
17818;SDS011;9034;50.284;19.310;2022-07-05T05:04:44;11.30;;;9.38;;
17818;SDS011;9034;50.284;19.310;2022-07-05T05:05:48;11.75;;;9.68;;
17818;SDS011;9034;50.284;19.310;2022-07-05T05:06:51;12.75;;;10.27;;
17818;SDS011;9034;50.284;19.310;2022-07-05T05:07:55;11.98;;;10.77;;
17818;SDS011;9034;50.284;19.310;2022-07-05T05:08:59;12.23;;;10.25;;
17818;SDS011;9034;50.284;19.310;2022-07-05T05:10:03;14.50;;;10.57;;
17818;SDS011;9034;50.284;19.310;2022-07-05T05:11:07;13.15;;;10.90;;
17818;SDS011;9034;50.284;19.310;2022-07-05T05:12:12;12.25;;;10.68;;
17818;SDS011;9034;50.284;19.310;2022-07-05T05:13:16;11.38;;;10.20;;
17818;SDS011;9034;50.284;19.310;2022-07-05T05:14:21;13.32;;;11.00;;
17818;SDS011;9034;50.284;19.310;2022-07-05T05:15:25;11.50;;;10.30;;
17818;SDS011;9034;50.284;19.310;2022-07-05T05:16:28;13.65;;;11.18;;
17818;SDS011;9034;50.284;19.310;2022-07-05T05:17:36;12.57;;;10.85;;
17818;SDS011;9034;50.284;19.310;2022-07-05T05:18:39;12.02;;;10.82;;
17818;SDS011;9034;50.284;19.310;2022-07-05T05:19:44;13.15;;;11.73;;
17818;SDS011;9034;50.284;19.310;2022-07-05T05:20:47;16.05;;;11.57;;
17818;SDS011;9034;50.284;19.310;2022-07-05T05:21:52;12.20;;;10.90;;
17818;SDS011;9034;50.284;19.310;2022-07-05T05:22:55;13.90;;;11.07;;
17818;SDS011;9034;50.284;19.310;2022-07-05T05:24:00;12.18;;;10.98;;
17818;SDS011;9034;50.284;19.310;2022-07-05T05:25:03;13.48;;;10.57;;
17818;SDS011;9034;50.284;19.310;2022-07-05T05:26:08;10.80;;;9.75;;
17818;SDS011;9034;50.284;19.310;2022-07-05T05:27:12;12.32;;;9.98;;
17818;SDS011;9034;50.284;19.310;2022-07-05T05:28:18;13.60;;;10.50;;
17818;SDS011;9034;50.284;19.310;2022-07-05T05:29:21;11.88;;;10.63;;
17818;SDS011;9034;50.284;19.310;2022-07-05T05:30:26;12.13;;;10.60;;
17818;SDS011;9034;50.284;19.310;2022-07-05T05:31:29;13.50;;;10.73;;
17818;SDS011;9034;50.284;19.310;2022-07-05T05:32:34;11.18;;;10.00;;
17818;SDS011;9034;50.284;19.310;2022-07-05T05:33:37;10.98;;;9.82;;
17818;SDS011;9034;50.284;19.310;2022-07-05T05:34:42;11.35;;;10.15;;
17818;SDS011;9034;50.284;19.310;2022-07-05T05:35:45;14.88;;;9.98;;
17818;SDS011;9034;50.284;19.310;2022-07-05T05:36:49;11.23;;;9.43;;
17818;SDS011;9034;50.284;19.310;2022-07-05T05:37:52;10.85;;;9.70;;
17818;SDS011;9034;50.284;19.310;2022-07-05T05:38:58;10.60;;;9.60;;
17818;SDS011;9034;50.284;19.310;2022-07-05T05:40:01;12.98;;;9.70;;
17818;SDS011;9034;50.284;19.310;2022-07-05T05:41:05;11.57;;;9.80;;
17818;SDS011;9034;50.284;19.310;2022-07-05T05:42:09;10.02;;;8.88;;
17818;SDS011;9034;50.284;19.310;2022-07-05T05:43:13;11.30;;;10.10;;
17818;SDS011;9034;50.284;19.310;2022-07-05T05:44:18;11.80;;;10.55;;
17818;SDS011;9034;50.284;19.310;2022-07-05T05:45:22;13.60;;;9.70;;
17818;SDS011;9034;50.284;19.310;2022-07-05T05:46:26;10.52;;;9.43;;
17818;SDS011;9034;50.284;19.310;2022-07-05T05:47:29;11.13;;;9.88;;
17818;SDS011;9034;50.284;19.310;2022-07-05T05:48:33;10.23;;;9.27;;
17818;SDS011;9034;50.284;19.310;2022-07-05T05:49:37;10.77;;;9.55;;
17818;SDS011;9034;50.284;19.310;2022-07-05T05:50:41;10.90;;;9.80;;
17818;SDS011;9034;50.284;19.310;2022-07-05T05:51:44;10.73;;;9.63;;
17818;SDS011;9034;50.284;19.310;2022-07-05T05:52:49;9.90;;;8.95;;
17818;SDS011;9034;50.284;19.310;2022-07-05T05:53:52;10.50;;;9.40;;
17818;SDS011;9034;50.284;19.310;2022-07-05T05:54:57;11.18;;;10.07;;
17818;SDS011;9034;50.284;19.310;2022-07-05T05:56:00;10.93;;;9.88;;
17818;SDS011;9034;50.284;19.310;2022-07-05T05:57:04;11.55;;;10.05;;
17818;SDS011;9034;50.284;19.310;2022-07-05T05:58:10;11.73;;;10.50;;
17818;SDS011;9034;50.284;19.310;2022-07-05T05:59:15;10.65;;;9.55;;
17818;SDS011;9034;50.284;19.310;2022-07-05T06:00:20;10.60;;;9.50;;
17818;SDS011;9034;50.284;19.310;2022-07-05T06:01:25;12.43;;;9.85;;
17818;SDS011;9034;50.284;19.310;2022-07-05T06:02:28;9.95;;;9.02;;
17818;SDS011;9034;50.284;19.310;2022-07-05T06:03:33;10.57;;;9.50;;
17818;SDS011;9034;50.284;19.310;2022-07-05T06:04:36;12.32;;;10.05;;
17818;SDS011;9034;50.284;19.310;2022-07-05T06:05:40;11.77;;;9.80;;
17818;SDS011;9034;50.284;19.310;2022-07-05T06:06:43;9.93;;;9.00;;
17818;SDS011;9034;50.284;19.310;2022-07-05T06:07:49;12.60;;;10.55;;
17818;SDS011;9034;50.284;19.310;2022-07-05T06:08:53;10.23;;;8.63;;
17818;SDS011;9034;50.284;19.310;2022-07-05T06:09:57;9.40;;;8.45;;
17818;SDS011;9034;50.284;19.310;2022-07-05T06:11:00;9.48;;;8.52;;
17818;SDS011;9034;50.284;19.310;2022-07-05T06:12:07;8.88;;;8.07;;
17818;SDS011;9034;50.284;19.310;2022-07-05T06:13:11;9.32;;;8.43;;
17818;SDS011;9034;50.284;19.310;2022-07-05T06:14:15;9.65;;;8.63;;
17818;SDS011;9034;50.284;19.310;2022-07-05T06:15:20;9.98;;;8.98;;
17818;SDS011;9034;50.284;19.310;2022-07-05T06:16:24;10.10;;;9.15;;
17818;SDS011;9034;50.284;19.310;2022-07-05T06:17:28;10.88;;;9.40;;
17818;SDS011;9034;50.284;19.310;2022-07-05T06:18:32;10.82;;;9.73;;
17818;SDS011;9034;50.284;19.310;2022-07-05T06:19:35;11.32;;;10.13;;
17818;SDS011;9034;50.284;19.310;2022-07-05T06:20:39;11.95;;;10.07;;
17818;SDS011;9034;50.284;19.310;2022-07-05T06:21:44;10.88;;;9.65;;
17818;SDS011;9034;50.284;19.310;2022-07-05T06:22:47;11.75;;;10.50;;
17818;SDS011;9034;50.284;19.310;2022-07-05T06:23:53;10.90;;;9.80;;
17818;SDS011;9034;50.284;19.310;2022-07-05T06:24:57;11.48;;;10.38;;
17818;SDS011;9034;50.284;19.310;2022-07-05T06:26:20;11.10;;;9.55;;
17818;SDS011;9034;50.284;19.310;2022-07-05T06:27:25;12.75;;;9.80;;
17818;SDS011;9034;50.284;19.310;2022-07-05T06:28:33;10.40;;;9.32;;